createdAt,value
2019-03-05T00:00:24.033Z,28.00
2019-03-05T00:02:55.131Z,28.00
2019-03-05T00:05:26.808Z,28.00
2019-03-05T00:07:57.775Z,28.00
2019-03-05T00:10:28.776Z,28.00
2019-03-05T00:12:59.756Z,27.90
2019-03-05T00:15:31.790Z,27.90
2019-03-05T00:18:02.671Z,27.90
2019-03-05T00:20:33.607Z,28.00
2019-03-05T00:23:04.396Z,28.00
2019-03-05T00:25:37.284Z,28.00
2019-03-05T00:28:25.879Z,28.00
2019-03-05T00:31:02.559Z,28.00
2019-03-05T00:33:53.652Z,28.00
2019-03-05T00:36:36.086Z,28.00
2019-03-05T00:39:32.679Z,28.10
2019-03-05T00:42:39.645Z,28.10
2019-03-05T00:45:48.152Z,28.10
2019-03-05T00:48:36.538Z,28.20
2019-03-05T00:51:27.469Z,28.20
2019-03-05T00:54:09.854Z,28.20
2019-03-05T00:56:55.686Z,28.30
2019-03-05T00:59:40.908Z,28.30
2019-03-05T01:02:32.921Z,28.30
2019-03-05T01:05:18.015Z,28.30
2019-03-05T01:07:48.788Z,28.30
2019-03-05T01:10:20.996Z,28.30
2019-03-05T01:12:52.380Z,28.40
2019-03-05T01:15:23.368Z,28.40
2019-03-05T01:17:54.504Z,28.40
2019-03-05T01:20:25.497Z,28.40
2019-03-05T01:22:56.286Z,28.50
2019-03-05T01:25:31.996Z,28.40
2019-03-05T01:28:02.864Z,28.50
2019-03-05T01:30:52.785Z,28.50
2019-03-05T01:33:23.788Z,28.50
2019-03-05T01:35:59.152Z,28.60
2019-03-05T01:38:31.421Z,28.60
2019-03-05T01:41:04.411Z,28.50
2019-03-05T01:43:35.579Z,28.60
2019-03-05T01:46:06.336Z,28.70
2019-03-05T01:48:37.411Z,28.70
2019-03-05T01:51:08.116Z,28.60
2019-03-05T01:53:39.068Z,28.80
2019-03-05T01:56:10.101Z,28.80
2019-03-05T01:58:40.876Z,28.80
2019-03-05T02:01:11.716Z,28.80
2019-03-05T02:03:42.720Z,28.90
2019-03-05T02:06:13.504Z,29.00
2019-03-05T02:08:44.229Z,29.00
2019-03-05T02:11:16.392Z,29.10
2019-03-05T02:13:47.095Z,29.10
2019-03-05T02:16:17.835Z,29.10
2019-03-05T02:18:49.090Z,29.10
2019-03-05T02:21:19.956Z,29.20
2019-03-05T02:24:18.404Z,29.20
2019-03-05T02:27:00.551Z,29.20
2019-03-05T02:29:39.789Z,29.30
2019-03-05T02:32:43.183Z,29.40
2019-03-05T02:35:29.045Z,29.50
2019-03-05T02:38:29.500Z,29.50
2019-03-05T02:41:02.784Z,29.50
2019-03-05T02:43:54.563Z,29.50
2019-03-05T02:46:30.697Z,29.60
2019-03-05T02:49:13.001Z,29.60
2019-03-05T02:51:49.157Z,29.70
2019-03-05T02:54:37.851Z,29.70
2019-03-05T02:57:10.156Z,29.80
2019-03-05T02:59:41.092Z,29.80
2019-03-05T03:02:16.489Z,30.00
2019-03-05T03:04:54.628Z,29.90
2019-03-05T03:07:25.580Z,30.00
2019-03-05T03:09:58.817Z,30.00
2019-03-05T03:12:29.720Z,30.10
2019-03-05T03:15:00.497Z,30.10
2019-03-05T03:17:31.226Z,30.20
2019-03-05T03:20:02.557Z,30.20
2019-03-05T03:22:53.430Z,30.20
2019-03-05T03:25:24.713Z,30.30
2019-03-05T03:27:55.585Z,30.30
2019-03-05T03:30:46.827Z,30.30
2019-03-05T03:33:17.646Z,30.40
2019-03-05T03:35:48.575Z,30.50
2019-03-05T03:38:19.672Z,30.60
2019-03-05T03:40:50.665Z,30.70
2019-03-05T03:43:21.497Z,30.70
2019-03-05T03:45:52.814Z,30.80
2019-03-05T03:48:23.586Z,30.80
2019-03-05T03:50:54.312Z,30.90
2019-03-05T03:53:25.385Z,30.90
2019-03-05T03:55:56.205Z,31.00
2019-03-05T03:58:27.037Z,31.00
2019-03-05T04:00:57.920Z,31.00
2019-03-05T04:03:28.674Z,31.10
2019-03-05T04:06:00.919Z,31.20
2019-03-05T04:08:31.714Z,31.20
2019-03-05T04:11:02.561Z,31.30
2019-03-05T04:13:33.354Z,31.30
2019-03-05T04:16:04.241Z,31.40
2019-03-05T04:18:35.178Z,31.30
2019-03-05T04:21:06.445Z,31.50
2019-03-05T04:23:37.109Z,31.50
2019-03-05T04:26:07.904Z,31.60
2019-03-05T04:28:38.935Z,31.60
2019-03-05T04:31:09.881Z,31.60
2019-03-05T04:33:40.810Z,31.60
2019-03-05T04:36:11.750Z,31.60
2019-03-05T04:38:42.499Z,31.70
2019-03-05T04:41:19.341Z,31.70
2019-03-05T04:43:50.207Z,31.80
2019-03-05T04:46:34.784Z,31.80
2019-03-05T04:49:10.115Z,31.80
2019-03-05T04:51:42.800Z,31.90
2019-03-05T04:54:13.741Z,31.80
2019-03-05T04:56:44.585Z,31.90
2019-03-05T04:59:15.626Z,31.80
2019-03-05T05:01:46.315Z,31.80
2019-03-05T05:04:17.298Z,31.90
2019-03-05T05:06:48.252Z,31.90
2019-03-05T05:09:19.087Z,31.90
2019-03-05T05:11:49.773Z,31.90
2019-03-05T05:14:21.056Z,32.00
2019-03-05T05:16:51.899Z,32.00
2019-03-05T05:19:22.599Z,32.10
2019-03-05T05:21:53.943Z,32.10
2019-03-05T05:24:24.728Z,32.10
2019-03-05T05:26:55.658Z,32.10
2019-03-05T05:29:26.624Z,32.20
2019-03-05T05:31:58.454Z,32.20
2019-03-05T05:34:29.414Z,32.20
2019-03-05T05:37:00.268Z,32.20
2019-03-05T05:40:07.077Z,32.20
2019-03-05T05:42:38.017Z,32.30
2019-03-05T05:45:11.523Z,32.30
2019-03-05T05:47:43.116Z,32.40
2019-03-05T05:50:13.909Z,32.40
2019-03-05T05:52:44.686Z,32.40
2019-03-05T05:55:15.592Z,32.40
2019-03-05T05:57:46.570Z,32.50
2019-03-05T06:00:20.992Z,32.50
2019-03-05T06:02:52.037Z,32.50
2019-03-05T06:05:22.874Z,32.60
2019-03-05T06:07:53.886Z,32.60
2019-03-05T06:10:24.738Z,32.60
2019-03-05T06:12:55.611Z,32.60
2019-03-05T06:15:26.620Z,32.60
2019-03-05T06:17:57.381Z,32.70
2019-03-05T06:20:28.100Z,32.80
2019-03-05T06:22:59.428Z,32.90
2019-03-05T06:25:30.469Z,32.90
2019-03-05T06:28:01.338Z,33.00
2019-03-05T06:30:35.182Z,33.00
2019-03-05T06:33:06.230Z,33.00
2019-03-05T06:35:37.585Z,33.10
2019-03-05T06:38:08.399Z,33.10
2019-03-05T06:40:39.209Z,33.10
2019-03-05T06:43:10.097Z,33.10
2019-03-05T06:45:40.887Z,33.10
2019-03-05T06:48:12.575Z,33.10
2019-03-05T06:50:43.890Z,33.20
2019-03-05T06:53:14.866Z,33.10
2019-03-05T06:55:46.208Z,33.10
2019-03-05T06:58:17.258Z,33.10
2019-03-05T07:00:48.069Z,33.10
2019-03-05T07:03:19.115Z,33.20
2019-03-05T07:06:27.964Z,33.10
2019-03-05T07:09:13.414Z,33.20
2019-03-05T07:12:01.417Z,33.20
2019-03-05T07:14:37.426Z,33.10
2019-03-05T07:17:19.913Z,33.10
2019-03-05T07:20:12.987Z,33.20
2019-03-05T07:22:55.803Z,33.20
2019-03-05T07:25:26.954Z,33.20
2019-03-05T07:27:57.689Z,33.30
2019-03-05T07:30:28.701Z,33.30
2019-03-05T07:32:59.483Z,33.20
2019-03-05T07:35:31.274Z,33.20
2019-03-05T07:38:02.241Z,33.20
2019-03-05T07:40:33.268Z,33.30
2019-03-05T07:43:04.053Z,33.30
2019-03-05T07:45:37.239Z,33.20
2019-03-05T07:48:07.481Z,33.20
2019-03-05T07:50:38.613Z,33.10
2019-03-05T07:53:12.272Z,33.30
2019-03-05T07:55:43.109Z,33.20
2019-03-05T07:58:14.204Z,33.30
2019-03-05T08:00:45.052Z,33.30
2019-03-05T08:03:15.879Z,33.20
2019-03-05T08:05:47.573Z,33.30
2019-03-05T08:08:54.637Z,33.30
2019-03-05T08:11:24.261Z,33.20
2019-03-05T08:14:03.532Z,33.30
2019-03-05T08:16:34.805Z,33.40
2019-03-05T08:19:05.640Z,33.40
2019-03-05T08:21:36.752Z,33.40
2019-03-05T08:24:07.698Z,33.30
2019-03-05T08:26:39.031Z,33.30
2019-03-05T08:29:09.971Z,33.20
2019-03-05T08:31:40.868Z,33.20
2019-03-05T08:34:11.787Z,33.20
2019-03-05T08:36:42.679Z,33.30
2019-03-05T08:39:13.443Z,33.30
2019-03-05T08:44:21.154Z,33.20
2019-03-05T08:46:51.942Z,33.10
2019-03-05T08:49:22.751Z,33.10
2019-03-05T08:51:53.974Z,33.10
2019-03-05T08:54:24.706Z,33.00
2019-03-05T08:56:55.469Z,33.10
2019-03-05T08:59:26.408Z,33.10
2019-03-05T09:01:57.173Z,33.10
2019-03-05T09:04:28.101Z,33.10
2019-03-05T09:06:59.073Z,32.90
2019-03-05T09:09:29.875Z,33.00
2019-03-05T09:12:00.816Z,32.90
2019-03-05T09:14:34.331Z,32.90
2019-03-05T09:17:04.346Z,32.90
2019-03-05T09:19:36.508Z,32.80
2019-03-05T09:22:07.250Z,32.80
2019-03-05T09:24:38.001Z,32.70
2019-03-05T09:27:13.407Z,32.80
2019-03-05T09:29:44.536Z,32.70
2019-03-05T09:32:15.506Z,32.70
2019-03-05T09:34:46.496Z,32.60
2019-03-05T09:37:17.295Z,32.60
2019-03-05T09:39:48.105Z,32.50
2019-03-05T09:42:20.748Z,32.50
2019-03-05T09:44:51.536Z,32.50
2019-03-05T09:47:22.259Z,32.50
2019-03-05T09:49:53.183Z,32.40
2019-03-05T09:52:24.348Z,32.30
2019-03-05T09:54:54.980Z,32.30
2019-03-05T09:57:27.375Z,32.30
2019-03-05T09:59:58.413Z,32.20
2019-03-05T10:02:29.238Z,32.20
2019-03-05T10:05:00.350Z,32.20
2019-03-05T10:07:31.227Z,32.10
2019-03-05T10:10:01.963Z,32.00
2019-03-05T10:12:32.845Z,31.90
2019-03-05T10:15:03.630Z,31.80
2019-03-05T10:17:37.947Z,31.80
2019-03-05T10:20:09.821Z,31.80
2019-03-05T10:22:40.648Z,31.80
2019-03-05T10:25:13.197Z,31.70
2019-03-05T10:27:44.169Z,31.70
2019-03-05T10:30:24.876Z,31.70
2019-03-05T10:32:53.122Z,31.70
2019-03-05T10:35:25.192Z,31.50
2019-03-05T10:37:57.801Z,31.50
2019-03-05T10:40:37.184Z,31.50
2019-03-05T10:43:09.431Z,31.40
2019-03-05T10:45:41.756Z,31.30
2019-03-05T10:48:12.692Z,31.30
2019-03-05T10:50:43.528Z,31.20
2019-03-05T10:53:14.908Z,31.10
2019-03-05T10:55:45.729Z,31.00
2019-03-05T10:58:18.381Z,30.90
2019-03-05T11:00:57.211Z,31.00
2019-03-05T11:03:30.475Z,30.80
2019-03-05T11:06:01.655Z,30.70
2019-03-05T11:08:32.589Z,30.60
2019-03-05T11:11:13.007Z,30.60
2019-03-05T11:13:35.699Z,30.60
2019-03-05T11:16:07.824Z,30.50
2019-03-05T11:18:39.179Z,30.60
2019-03-05T11:21:10.221Z,30.50
2019-03-05T11:23:41.379Z,30.50
2019-03-05T11:26:12.718Z,30.50
2019-03-05T11:28:43.860Z,30.40
2019-03-05T11:31:14.643Z,30.40
2019-03-05T11:33:45.888Z,30.30
2019-03-05T11:36:16.898Z,30.30
2019-03-05T11:38:47.678Z,30.30
2019-03-05T11:41:18.601Z,30.30
2019-03-05T11:43:49.619Z,30.30
2019-03-05T11:46:20.495Z,30.20
2019-03-05T11:48:51.181Z,30.20
2019-03-05T11:51:29.757Z,30.10
2019-03-05T11:54:06.197Z,30.00
2019-03-05T11:56:37.216Z,29.90
2019-03-05T11:59:08.057Z,30.10
2019-03-05T12:01:38.828Z,30.00
2019-03-05T12:04:20.787Z,30.00
2019-03-05T12:06:51.560Z,30.00
2019-03-05T12:09:22.298Z,29.90
2019-03-05T12:11:53.197Z,29.90
2019-03-05T12:15:09.211Z,29.90
2019-03-05T12:17:40.251Z,29.90
2019-03-05T12:20:13.197Z,29.90
2019-03-05T12:22:44.240Z,29.90
2019-03-05T12:25:17.057Z,29.90
2019-03-05T12:27:48.032Z,29.80
2019-03-05T12:30:23.898Z,29.80
2019-03-05T12:32:53.816Z,29.80
2019-03-05T12:35:25.060Z,29.80
2019-03-05T12:37:56.002Z,29.80
2019-03-05T12:40:30.379Z,29.70
2019-03-05T12:43:03.914Z,29.70
2019-03-05T12:45:34.912Z,29.60
2019-03-05T12:48:05.905Z,29.50
2019-03-05T12:50:37.864Z,29.50
2019-03-05T12:53:08.837Z,29.50
2019-03-05T12:58:35.437Z,29.60
2019-03-05T13:01:08.297Z,29.60
2019-03-05T13:03:39.382Z,29.60
2019-03-05T13:06:10.166Z,29.60
2019-03-05T13:08:40.948Z,29.60
2019-03-05T13:11:13.079Z,29.60
2019-03-05T13:13:47.655Z,29.60
2019-03-05T13:16:16.564Z,29.60
2019-03-05T13:18:47.491Z,29.60
2019-03-05T13:21:19.450Z,29.50
2019-03-05T13:23:51.604Z,29.60
2019-03-05T13:26:22.754Z,29.50
2019-03-05T13:28:53.481Z,29.60
2019-03-05T13:31:24.281Z,29.50
2019-03-05T13:33:55.259Z,29.40
2019-03-05T13:36:26.343Z,29.40
2019-03-05T13:38:57.089Z,29.40
2019-03-05T13:41:29.682Z,29.40
2019-03-05T13:44:00.448Z,29.40
2019-03-05T13:46:31.233Z,29.40
2019-03-05T13:49:04.724Z,29.50
2019-03-05T13:51:50.169Z,29.50
2019-03-05T13:54:26.232Z,29.40
2019-03-05T13:57:08.570Z,29.40
2019-03-05T13:59:44.236Z,29.40
2019-03-05T14:02:17.017Z,29.40
2019-03-05T14:04:55.905Z,29.30
2019-03-05T14:07:40.839Z,29.40
2019-03-05T14:10:11.954Z,29.40
2019-03-05T14:12:42.796Z,29.30
2019-03-05T14:15:14.243Z,29.30
2019-03-05T14:17:48.111Z,29.30
2019-03-05T14:20:19.131Z,29.30
2019-03-05T14:22:50.068Z,29.30
2019-03-05T14:25:20.969Z,29.20
2019-03-05T14:27:51.942Z,29.20
2019-03-05T14:30:23.319Z,29.10
2019-03-05T14:32:54.342Z,29.10
2019-03-05T14:35:25.217Z,29.20
2019-03-05T14:37:57.111Z,29.20
2019-03-05T14:40:30.180Z,29.20
2019-03-05T14:43:01.301Z,29.10
2019-03-05T14:45:52.540Z,29.20
2019-03-05T14:48:23.352Z,29.20
2019-03-05T14:50:54.275Z,29.20
2019-03-05T14:53:27.585Z,29.00
2019-03-05T14:55:58.693Z,29.00
2019-03-05T14:58:29.879Z,29.10
2019-03-05T15:01:00.879Z,29.00
2019-03-05T15:07:12.991Z,29.00
2019-03-05T15:09:43.880Z,29.00
2019-03-05T15:12:14.809Z,29.00
2019-03-05T15:14:45.725Z,29.00
2019-03-05T15:17:16.493Z,28.90
2019-03-05T15:19:47.213Z,29.00
2019-03-05T15:22:18.153Z,28.90
2019-03-05T15:24:49.009Z,28.90
2019-03-05T15:27:19.880Z,28.90
2019-03-05T15:29:50.882Z,29.00
2019-03-05T15:32:23.292Z,28.90
2019-03-05T15:34:54.433Z,28.90
2019-03-05T15:37:25.269Z,28.90
2019-03-05T15:39:56.344Z,28.90
2019-03-05T15:42:28.700Z,28.90
2019-03-05T15:44:59.649Z,28.90
2019-03-05T15:47:34.961Z,28.90
2019-03-05T15:50:11.625Z,28.80
2019-03-05T15:52:42.605Z,28.70
2019-03-05T15:55:15.943Z,28.80
2019-03-05T15:57:48.292Z,28.80
2019-03-05T16:00:31.472Z,28.80
2019-03-05T16:03:02.749Z,28.80
2019-03-05T16:05:33.536Z,28.80
2019-03-05T16:08:04.271Z,28.80
2019-03-05T16:10:35.270Z,28.70
2019-03-05T16:13:33.281Z,28.70
2019-03-05T16:16:04.181Z,28.70
2019-03-05T16:18:39.160Z,28.60
2019-03-05T16:21:07.961Z,28.70
2019-03-05T16:23:45.639Z,28.60
2019-03-05T16:26:16.645Z,28.60
2019-03-05T16:28:47.524Z,28.70
2019-03-05T16:31:22.942Z,28.70
2019-03-05T16:33:55.332Z,28.60
2019-03-05T16:36:29.171Z,28.60
2019-03-05T16:39:04.575Z,28.50
2019-03-05T16:41:37.471Z,28.50
2019-03-05T16:44:36.033Z,28.50
2019-03-05T16:47:11.489Z,28.50
2019-03-05T16:49:46.457Z,28.50
2019-03-05T16:52:35.305Z,28.50
2019-03-05T16:55:12.388Z,28.50
2019-03-05T16:57:57.262Z,28.50
2019-03-05T17:00:32.391Z,28.50
2019-03-05T17:03:05.380Z,28.50
2019-03-05T17:05:55.757Z,28.50
2019-03-05T17:08:34.204Z,28.50
2019-03-05T17:11:12.546Z,28.50
2019-03-05T17:13:43.502Z,28.50
2019-03-05T17:16:14.694Z,28.60
2019-03-05T17:18:45.485Z,28.60
2019-03-05T17:21:16.584Z,28.60
2019-03-05T17:23:47.515Z,28.60
2019-03-05T17:26:18.440Z,28.60
2019-03-05T17:28:49.656Z,28.60
2019-03-05T17:31:20.426Z,28.50
2019-03-05T17:33:51.157Z,28.50
2019-03-05T17:36:22.028Z,28.50
2019-03-05T17:38:52.738Z,28.40
2019-03-05T17:41:23.687Z,28.40
2019-03-05T17:43:54.988Z,28.30
2019-03-05T17:46:25.756Z,28.30
2019-03-05T17:48:56.500Z,28.30
2019-03-05T17:51:27.712Z,28.30
2019-03-05T17:53:58.487Z,28.40
2019-03-05T17:56:29.390Z,28.40
2019-03-05T17:59:00.325Z,28.30
2019-03-05T18:01:31.098Z,28.30
2019-03-05T18:04:03.364Z,28.40
2019-03-05T18:06:34.275Z,28.30
2019-03-05T18:09:06.078Z,28.30
2019-03-05T18:11:36.905Z,28.30
2019-03-05T18:14:07.771Z,28.40
2019-03-05T18:16:38.449Z,28.30
2019-03-05T18:19:09.434Z,28.30
2019-03-05T18:21:40.734Z,28.30
2019-03-05T18:24:11.522Z,28.20
2019-03-05T18:26:42.341Z,28.30
2019-03-05T18:29:13.252Z,28.30
2019-03-05T18:31:44.021Z,28.30
2019-03-05T18:34:14.755Z,28.30
2019-03-05T18:36:45.618Z,28.30
2019-03-05T18:39:16.935Z,28.30
2019-03-05T18:41:47.697Z,28.30
2019-03-05T18:44:19.039Z,28.30
2019-03-05T18:46:50.165Z,28.30
2019-03-05T18:49:20.920Z,28.30
2019-03-05T18:51:51.920Z,28.20
2019-03-05T18:54:22.952Z,28.20
2019-03-05T18:56:53.690Z,28.20
2019-03-05T18:59:24.637Z,28.20
2019-03-05T19:01:55.412Z,28.20
2019-03-05T19:04:26.525Z,28.20
2019-03-05T19:06:57.416Z,28.20
2019-03-05T19:09:29.252Z,28.20
2019-03-05T19:11:59.986Z,28.20
2019-03-05T19:14:30.785Z,28.20
2019-03-05T19:17:01.479Z,28.20
2019-03-05T19:19:32.293Z,28.20
2019-03-05T19:22:03.195Z,28.20
2019-03-05T19:24:33.969Z,28.20
2019-03-05T19:27:05.012Z,28.10
2019-03-05T19:29:35.908Z,28.10
2019-03-05T19:32:06.697Z,28.10
2019-03-05T19:34:37.421Z,28.10
2019-03-05T19:37:08.433Z,28.10
2019-03-05T19:39:39.200Z,28.10
2019-03-05T19:42:09.939Z,28.20
2019-03-05T19:44:40.892Z,28.20
2019-03-05T19:47:11.616Z,28.20
2019-03-05T19:49:43.183Z,28.20
2019-03-05T19:52:14.004Z,28.10
2019-03-05T19:54:44.961Z,28.20
2019-03-05T19:57:15.914Z,28.20
2019-03-05T19:59:46.932Z,28.20
2019-03-05T20:02:17.768Z,28.20
2019-03-05T20:04:49.078Z,28.10
2019-03-05T20:07:19.810Z,28.10
2019-03-05T20:09:50.652Z,28.10
2019-03-05T20:12:21.746Z,28.10
2019-03-05T20:14:52.669Z,28.10
2019-03-05T20:17:23.413Z,28.10
2019-03-05T20:19:54.404Z,28.00
2019-03-05T20:22:25.185Z,28.00
2019-03-05T20:24:55.934Z,28.00
2019-03-05T20:27:26.823Z,28.10
2019-03-05T20:29:57.710Z,28.00
2019-03-05T20:32:28.594Z,28.00
2019-03-05T20:34:59.552Z,28.00
2019-03-05T20:37:30.640Z,28.10
2019-03-05T20:40:02.792Z,28.10
2019-03-05T20:42:33.972Z,28.10
2019-03-05T20:45:04.788Z,28.00
2019-03-05T20:47:35.622Z,28.00
2019-03-05T20:50:08.194Z,28.00
2019-03-05T20:52:39.313Z,28.00
2019-03-05T20:55:13.033Z,28.00
2019-03-05T20:57:43.997Z,28.00
2019-03-05T21:00:24.523Z,28.00
2019-03-05T21:02:57.446Z,28.00
2019-03-05T21:05:30.897Z,27.90
2019-03-05T21:08:01.992Z,28.00
2019-03-05T21:10:32.784Z,27.90
2019-03-05T21:13:03.825Z,27.90
2019-03-05T21:15:35.771Z,27.90
2019-03-05T21:18:09.129Z,27.90
2019-03-05T21:20:39.875Z,27.90
2019-03-05T21:23:10.690Z,27.90
2019-03-05T21:25:41.791Z,27.90
2019-03-05T21:28:12.572Z,27.90
2019-03-05T21:30:43.370Z,27.80
2019-03-05T21:33:14.315Z,27.90
2019-03-05T21:35:45.302Z,27.90
2019-03-05T21:38:16.133Z,27.80
2019-03-05T21:40:47.030Z,27.80
2019-03-05T21:43:21.796Z,27.80
2019-03-05T21:45:55.412Z,27.80
2019-03-05T21:48:26.351Z,27.80
2019-03-05T21:50:57.080Z,27.80
2019-03-05T21:53:28.391Z,27.80
2019-03-05T21:55:59.367Z,27.80
2019-03-05T21:58:30.113Z,27.80
2019-03-05T22:01:01.017Z,27.80
2019-03-05T22:03:31.788Z,27.80
2019-03-05T22:06:02.513Z,27.80
2019-03-05T22:08:33.427Z,27.80
2019-03-05T22:11:04.505Z,27.80
2019-03-05T22:13:35.305Z,27.80
2019-03-05T22:16:06.236Z,27.80
2019-03-05T22:18:36.976Z,27.80
2019-03-05T22:21:07.757Z,27.80
2019-03-05T22:23:57.183Z,27.80
2019-03-05T22:26:27.979Z,27.80
2019-03-05T22:28:58.808Z,27.80
2019-03-05T22:31:29.806Z,27.80
2019-03-05T22:34:18.188Z,27.80
2019-03-05T22:36:49.097Z,27.80
2019-03-05T22:39:19.860Z,27.80
2019-03-05T22:41:50.693Z,27.80
2019-03-05T22:44:21.701Z,27.80
2019-03-05T22:46:52.482Z,27.80
2019-03-05T22:49:23.216Z,27.80
2019-03-05T22:51:54.115Z,27.80
2019-03-05T22:54:25.208Z,27.80
2019-03-05T22:56:55.932Z,27.80
2019-03-05T22:59:26.952Z,27.80
2019-03-05T23:01:57.985Z,27.80
2019-03-05T23:04:32.504Z,27.80
2019-03-05T23:07:03.501Z,27.70
2019-03-05T23:09:34.540Z,27.70
2019-03-05T23:12:06.050Z,27.80
2019-03-05T23:14:55.964Z,27.70
2019-03-05T23:17:27.067Z,27.70
2019-03-05T23:19:57.917Z,27.70
2019-03-05T23:22:28.687Z,27.70
2019-03-05T23:24:59.554Z,27.70
2019-03-05T23:27:30.259Z,27.70
2019-03-05T23:30:00.952Z,27.70
2019-03-05T23:32:32.162Z,27.70
2019-03-05T23:35:03.399Z,27.70
2019-03-05T23:37:34.324Z,27.70
2019-03-05T23:40:05.637Z,27.60
2019-03-05T23:42:36.413Z,27.60
2019-03-05T23:45:12.728Z,27.60
2019-03-05T23:48:07.839Z,27.60
2019-03-05T23:50:38.782Z,27.60
2019-03-05T23:53:09.571Z,27.60
2019-03-05T23:55:40.660Z,27.60
2019-03-05T23:58:11.592Z,27.60
